sensor_id;sensor_type;location;lat;lon;timestamp;pressure;altitude;pressure_sealevel;temperature;humidity
75913;BME280;64592;52.168;21.040;2023-10-13T00:03:21;100383.88;;;10.12;100.00
75913;BME280;64592;52.168;21.040;2023-10-13T00:08:23;100391.44;;;10.07;100.00
75913;BME280;64592;52.168;21.040;2023-10-13T00:13:32;100376.03;;;9.96;100.00
75913;BME280;64592;52.168;21.040;2023-10-13T00:18:50;100389.16;;;10.01;100.00
75913;BME280;64592;52.168;21.040;2023-10-13T00:23:54;100382.91;;;10.00;100.00
75913;BME280;64592;52.168;21.040;2023-10-13T00:28:59;100385.84;;;9.97;100.00
75913;BME280;64592;52.168;21.040;2023-10-13T00:34:09;100376.25;;;9.93;100.00
75913;BME280;64592;52.168;21.040;2023-10-13T00:39:19;100393.50;;;9.91;100.00
75913;BME280;64592;52.168;21.040;2023-10-13T00:44:24;100404.59;;;9.86;100.00
75913;BME280;64592;52.168;21.040;2023-10-13T00:49:34;100402.34;;;9.93;100.00
75913;BME280;64592;52.168;21.040;2023-10-13T00:54:40;100398.03;;;9.90;100.00
75913;BME280;64592;52.168;21.040;2023-10-13T00:59:43;100406.53;;;9.97;100.00
75913;BME280;64592;52.168;21.040;2023-10-13T01:04:48;100403.19;;;9.93;100.00
75913;BME280;64592;52.168;21.040;2023-10-13T01:09:50;100402.44;;;9.91;100.00
75913;BME280;64592;52.168;21.040;2023-10-13T01:14:53;100413.97;;;9.81;100.00
75913;BME280;64592;52.168;21.040;2023-10-13T01:19:59;100414.22;;;9.78;100.00
75913;BME280;64592;52.168;21.040;2023-10-13T01:25:03;100417.66;;;9.67;100.00
75913;BME280;64592;52.168;21.040;2023-10-13T01:30:13;100424.44;;;9.60;100.00
75913;BME280;64592;52.168;21.040;2023-10-13T01:35:23;100427.88;;;9.62;100.00
75913;BME280;64592;52.168;21.040;2023-10-13T01:40:36;100425.53;;;9.70;100.00
75913;BME280;64592;52.168;21.040;2023-10-13T01:45:38;100415.16;;;9.64;100.00
75913;BME280;64592;52.168;21.040;2023-10-13T01:50:47;100424.97;;;9.65;100.00
75913;BME280;64592;52.168;21.040;2023-10-13T01:56:00;100417.56;;;9.68;100.00
75913;BME280;64592;52.168;21.040;2023-10-13T02:01:07;100410.34;;;9.69;100.00
75913;BME280;64592;52.168;21.040;2023-10-13T02:06:09;100400.75;;;9.65;100.00
75913;BME280;64592;52.168;21.040;2023-10-13T02:11:19;100401.19;;;9.59;100.00
75913;BME280;64592;52.168;21.040;2023-10-13T02:16:21;100421.31;;;9.66;100.00
75913;BME280;64592;52.168;21.040;2023-10-13T02:21:26;100412.59;;;9.62;100.00
75913;BME280;64592;52.168;21.040;2023-10-13T02:26:33;100420.53;;;9.64;100.00
75913;BME280;64592;52.168;21.040;2023-10-13T02:31:41;100421.84;;;9.71;100.00
75913;BME280;64592;52.168;21.040;2023-10-13T02:36:55;100417.22;;;9.73;100.00
75913;BME280;64592;52.168;21.040;2023-10-13T02:42:00;100413.44;;;9.76;100.00
75913;BME280;64592;52.168;21.040;2023-10-13T02:47:02;100419.03;;;9.72;100.00
75913;BME280;64592;52.168;21.040;2023-10-13T02:52:06;100423.13;;;9.78;100.00
75913;BME280;64592;52.168;21.040;2023-10-13T02:57:10;100427.34;;;9.82;100.00
75913;BME280;64592;52.168;21.040;2023-10-13T03:02:12;100414.31;;;9.76;100.00
75913;BME280;64592;52.168;21.040;2023-10-13T03:07:25;100406.44;;;9.73;100.00
75913;BME280;64592;52.168;21.040;2023-10-13T03:12:32;100413.13;;;9.67;100.00
75913;BME280;64592;52.168;21.040;2023-10-13T03:17:36;100410.63;;;9.64;100.00
75913;BME280;64592;52.168;21.040;2023-10-13T03:22:44;100414.53;;;9.60;100.00
75913;BME280;64592;52.168;21.040;2023-10-13T03:27:48;100408.28;;;9.60;100.00
75913;BME280;64592;52.168;21.040;2023-10-13T03:33:02;100401.84;;;9.62;100.00
75913;BME280;64592;52.168;21.040;2023-10-13T03:38:12;100389.78;;;9.68;100.00
75913;BME280;64592;52.168;21.040;2023-10-13T03:43:22;100414.75;;;9.70;100.00
75913;BME280;64592;52.168;21.040;2023-10-13T03:48:35;100420.53;;;9.64;100.00
75913;BME280;64592;52.168;21.040;2023-10-13T03:53:52;100403.78;;;9.60;100.00
75913;BME280;64592;52.168;21.040;2023-10-13T03:58:57;100416.44;;;9.71;100.00
75913;BME280;64592;52.168;21.040;2023-10-13T04:04:02;100410.78;;;9.63;100.00
75913;BME280;64592;52.168;21.040;2023-10-13T04:09:14;100422.72;;;9.59;100.00
75913;BME280;64592;52.168;21.040;2023-10-13T04:14:36;100436.06;;;9.48;100.00
75913;BME280;64592;52.168;21.040;2023-10-13T04:19:53;100436.59;;;9.53;100.00
75913;BME280;64592;52.168;21.040;2023-10-13T04:25:16;100413.66;;;9.60;100.00
75913;BME280;64592;52.168;21.040;2023-10-13T04:30:46;100411.94;;;9.59;100.00
75913;BME280;64592;52.168;21.040;2023-10-13T04:36:01;100417.13;;;9.62;100.00
75913;BME280;64592;52.168;21.040;2023-10-13T04:41:08;100419.81;;;9.62;100.00
75913;BME280;64592;52.168;21.040;2023-10-13T04:46:28;100422.50;;;9.62;100.00
75913;BME280;64592;52.168;21.040;2023-10-13T04:52:09;100419.59;;;9.65;100.00
75913;BME280;64592;52.168;21.040;2023-10-13T04:57:27;100416.69;;;9.68;100.00
75913;BME280;64592;52.168;21.040;2023-10-13T05:02:36;100411.19;;;9.69;100.00
75913;BME280;64592;52.168;21.040;2023-10-13T05:08:22;100415.63;;;9.70;100.00
75913;BME280;64592;52.168;21.040;2023-10-13T05:13:41;100402.25;;;9.69;100.00
75913;BME280;64592;52.168;21.040;2023-10-13T05:19:04;100419.91;;;9.73;100.00
75913;BME280;64592;52.168;21.040;2023-10-13T05:24:23;100424.97;;;9.78;100.00
75913;BME280;64592;52.168;21.040;2023-10-13T05:29:44;100442.97;;;9.77;100.00
75913;BME280;64592;52.168;21.040;2023-10-13T05:35:07;100444.66;;;9.78;100.00
75913;BME280;64592;52.168;21.040;2023-10-13T05:40:27;100463.63;;;9.77;100.00
75913;BME280;64592;52.168;21.040;2023-10-13T05:45:46;100464.50;;;9.77;100.00
75913;BME280;64592;52.168;21.040;2023-10-13T05:51:07;100464.25;;;9.80;100.00
75913;BME280;64592;52.168;21.040;2023-10-13T05:56:28;100465.47;;;9.76;100.00
75913;BME280;64592;52.168;21.040;2023-10-13T06:01:47;100485.47;;;9.72;100.00
75913;BME280;64592;52.168;21.040;2023-10-13T06:07:08;100501.84;;;9.69;100.00
75913;BME280;64592;52.168;21.040;2023-10-13T06:12:27;100492.16;;;9.66;100.00
75913;BME280;64592;52.168;21.040;2023-10-13T06:17:47;100492.81;;;9.70;100.00
75913;BME280;64592;52.168;21.040;2023-10-13T06:23:14;100499.91;;;9.71;100.00
75913;BME280;64592;52.168;21.040;2023-10-13T06:28:33;100508.09;;;9.69;100.00
75913;BME280;64592;52.168;21.040;2023-10-13T06:33:46;100512.28;;;9.73;100.00
75913;BME280;64592;52.168;21.040;2023-10-13T06:38:51;100521.03;;;9.77;100.00
75913;BME280;64592;52.168;21.040;2023-10-13T06:44:23;100511.97;;;9.78;100.00
75913;BME280;64592;52.168;21.040;2023-10-13T06:49:25;100518.09;;;9.80;100.00
75913;BME280;64592;52.168;21.040;2023-10-13T06:54:30;100522.84;;;9.89;100.00
75913;BME280;64592;52.168;21.040;2023-10-13T06:59:35;100520.69;;;9.94;100.00
75913;BME280;64592;52.168;21.040;2023-10-13T07:04:41;100510.03;;;10.05;100.00
75913;BME280;64592;52.168;21.040;2023-10-13T07:10:01;100510.25;;;10.15;100.00
75913;BME280;64592;52.168;21.040;2023-10-13T07:15:03;100510.81;;;10.20;100.00
75913;BME280;64592;52.168;21.040;2023-10-13T07:20:06;100495.28;;;10.24;100.00
75913;BME280;64592;52.168;21.040;2023-10-13T07:25:17;100511.44;;;10.36;100.00
75913;BME280;64592;52.168;21.040;2023-10-13T07:30:27;100511.88;;;10.43;100.00
75913;BME280;64592;52.168;21.040;2023-10-13T07:35:31;100504.81;;;10.53;100.00
75913;BME280;64592;52.168;21.040;2023-10-13T07:40:40;100504.78;;;10.66;100.00
75913;BME280;64592;52.168;21.040;2023-10-13T07:45:42;100510.13;;;10.78;100.00
75913;BME280;64592;52.168;21.040;2023-10-13T07:50:44;100491.44;;;10.88;100.00
75913;BME280;64592;52.168;21.040;2023-10-13T07:55:47;100495.50;;;10.94;100.00
75913;BME280;64592;52.168;21.040;2023-10-13T08:00:55;100489.75;;;10.98;100.00
75913;BME280;64592;52.168;21.040;2023-10-13T08:06:08;100484.66;;;11.06;100.00
75913;BME280;64592;52.168;21.040;2023-10-13T08:11:23;100476.09;;;11.12;100.00
75913;BME280;64592;52.168;21.040;2023-10-13T08:16:31;100477.72;;;11.15;100.00
75913;BME280;64592;52.168;21.040;2023-10-13T08:21:48;100468.66;;;11.27;100.00
75913;BME280;64592;52.168;21.040;2023-10-13T08:26:56;100465.53;;;11.33;100.00
75913;BME280;64592;52.168;21.040;2023-10-13T08:32:15;100457.66;;;11.41;100.00
75913;BME280;64592;52.168;21.040;2023-10-13T08:37:36;100467.88;;;11.49;100.00
75913;BME280;64592;52.168;21.040;2023-10-13T08:43:03;100458.47;;;11.54;100.00
75913;BME280;64592;52.168;21.040;2023-10-13T08:48:13;100458.72;;;11.62;100.00
75913;BME280;64592;52.168;21.040;2023-10-13T08:53:16;100467.81;;;11.73;100.00
75913;BME280;64592;52.168;21.040;2023-10-13T08:58:33;100459.78;;;11.84;100.00
75913;BME280;64592;52.168;21.040;2023-10-13T09:03:55;100451.91;;;12.03;100.00
75913;BME280;64592;52.168;21.040;2023-10-13T09:09:20;100448.72;;;12.20;100.00
75913;BME280;64592;52.168;21.040;2023-10-13T09:14:38;100460.13;;;12.35;100.00
75913;BME280;64592;52.168;21.040;2023-10-13T09:19:48;100439.72;;;12.42;100.00
75913;BME280;64592;52.168;21.040;2023-10-13T09:25:22;100448.94;;;12.51;100.00
75913;BME280;64592;52.168;21.040;2023-10-13T09:30:28;100451.59;;;12.62;100.00
75913;BME280;64592;52.168;21.040;2023-10-13T09:35:31;100448.03;;;12.72;100.00
75913;BME280;64592;52.168;21.040;2023-10-13T09:40:37;100443.69;;;12.81;100.00
75913;BME280;64592;52.168;21.040;2023-10-13T09:45:49;100448.19;;;12.92;100.00
75913;BME280;64592;52.168;21.040;2023-10-13T09:51:03;100433.28;;;12.97;100.00
75913;BME280;64592;52.168;21.040;2023-10-13T09:56:12;100417.66;;;13.01;100.00
75913;BME280;64592;52.168;21.040;2023-10-13T10:01:24;100422.44;;;13.08;100.00
75913;BME280;64592;52.168;21.040;2023-10-13T10:06:38;100402.84;;;13.16;100.00
75913;BME280;64592;52.168;21.040;2023-10-13T10:12:12;100394.88;;;13.14;100.00
75913;BME280;64592;52.168;21.040;2023-10-13T10:17:20;100406.56;;;13.36;100.00
75913;BME280;64592;52.168;21.040;2023-10-13T10:22:28;100384.84;;;13.47;100.00
75913;BME280;64592;52.168;21.040;2023-10-13T10:27:35;100378.66;;;13.66;100.00
75913;BME280;64592;52.168;21.040;2023-10-13T10:32:40;100373.34;;;13.85;100.00
75913;BME280;64592;52.168;21.040;2023-10-13T10:37:42;100359.72;;;14.06;100.00
75913;BME280;64592;52.168;21.040;2023-10-13T10:42:51;100356.19;;;14.24;100.00
75913;BME280;64592;52.168;21.040;2023-10-13T10:48:30;100348.66;;;14.37;100.00
75913;BME280;64592;52.168;21.040;2023-10-13T10:53:40;100345.00;;;14.48;100.00
75913;BME280;64592;52.168;21.040;2023-10-13T10:58:47;100332.00;;;14.61;100.00
75913;BME280;64592;52.168;21.040;2023-10-13T11:03:58;100323.88;;;14.81;100.00
75913;BME280;64592;52.168;21.040;2023-10-13T11:09:08;100330.16;;;15.00;100.00
75913;BME280;64592;52.168;21.040;2023-10-13T11:14:28;100320.41;;;15.17;100.00
75913;BME280;64592;52.168;21.040;2023-10-13T11:19:41;100316.38;;;15.31;100.00
75913;BME280;64592;52.168;21.040;2023-10-13T11:24:43;100303.72;;;15.49;100.00
75913;BME280;64592;52.168;21.040;2023-10-13T11:29:44;100299.63;;;15.82;100.00
75913;BME280;64592;52.168;21.040;2023-10-13T11:34:54;100295.72;;;16.12;99.79
75913;BME280;64592;52.168;21.040;2023-10-13T11:39:56;100282.22;;;16.38;98.73
75913;BME280;64592;52.168;21.040;2023-10-13T11:44:57;100278.19;;;16.77;96.63
75913;BME280;64592;52.168;21.040;2023-10-13T11:50:24;100271.66;;;17.14;94.67
75913;BME280;64592;52.168;21.040;2023-10-13T11:55:36;100261.44;;;17.33;94.18
75913;BME280;64592;52.168;21.040;2023-10-13T12:00:40;100269.31;;;17.78;92.09
75913;BME280;64592;52.168;21.040;2023-10-13T12:06:10;100263.19;;;18.27;90.43
75913;BME280;64592;52.168;21.040;2023-10-13T12:11:33;100243.81;;;18.62;86.48
75913;BME280;64592;52.168;21.040;2023-10-13T12:16:39;100242.44;;;18.90;86.46
75913;BME280;64592;52.168;21.040;2023-10-13T12:21:44;100242.22;;;19.16;86.20
75913;BME280;64592;52.168;21.040;2023-10-13T12:26:49;100230.88;;;19.44;85.04
75913;BME280;64592;52.168;21.040;2023-10-13T12:31:56;100230.88;;;19.52;81.61
75913;BME280;64592;52.168;21.040;2023-10-13T12:37:09;100215.50;;;19.43;83.72
75913;BME280;64592;52.168;21.040;2023-10-13T12:42:32;100207.84;;;19.38;83.32
75913;BME280;64592;52.168;21.040;2023-10-13T12:47:52;100194.66;;;19.42;86.42
75913;BME280;64592;52.168;21.040;2023-10-13T12:53:27;100190.53;;;19.46;84.16
75913;BME280;64592;52.168;21.040;2023-10-13T12:58:31;100187.13;;;19.44;82.94
75913;BME280;64592;52.168;21.040;2023-10-13T13:03:33;100168.44;;;19.16;84.05
75913;BME280;64592;52.168;21.040;2023-10-13T13:08:36;100179.75;;;18.97;85.84
75913;BME280;64592;52.168;21.040;2023-10-13T13:13:44;100163.25;;;18.74;87.09
75913;BME280;64592;52.168;21.040;2023-10-13T13:18:47;100193.78;;;18.78;87.98
75913;BME280;64592;52.168;21.040;2023-10-13T13:23:50;100165.47;;;18.71;88.24
75913;BME280;64592;52.168;21.040;2023-10-13T13:28:55;100159.31;;;18.60;88.94
75913;BME280;64592;52.168;21.040;2023-10-13T13:33:57;100165.09;;;18.49;89.85
75913;BME280;64592;52.168;21.040;2023-10-13T13:39:02;100151.97;;;18.37;91.42
75913;BME280;64592;52.168;21.040;2023-10-13T13:44:05;100141.56;;;18.32;92.09
75913;BME280;64592;52.168;21.040;2023-10-13T13:49:14;100128.75;;;18.24;92.30
75913;BME280;64592;52.168;21.040;2023-10-13T13:54:21;100135.75;;;18.19;94.00
75913;BME280;64592;52.168;21.040;2023-10-13T13:59:23;100117.84;;;18.08;94.29
75913;BME280;64592;52.168;21.040;2023-10-13T14:04:25;100124.66;;;18.04;95.17
75913;BME280;64592;52.168;21.040;2023-10-13T14:09:35;100109.31;;;17.95;96.16
75913;BME280;64592;52.168;21.040;2023-10-13T14:14:40;100104.69;;;17.88;97.22
75913;BME280;64592;52.168;21.040;2023-10-13T14:19:49;100104.19;;;17.76;97.32
75913;BME280;64592;52.168;21.040;2023-10-13T14:24:55;100102.78;;;17.72;98.05
75913;BME280;64592;52.168;21.040;2023-10-13T14:29:56;100091.88;;;17.64;98.62
75913;BME280;64592;52.168;21.040;2023-10-13T14:34:59;100087.22;;;17.56;99.33
75913;BME280;64592;52.168;21.040;2023-10-13T14:40:13;100095.59;;;17.55;100.00
75913;BME280;64592;52.168;21.040;2023-10-13T14:45:16;100086.88;;;17.51;100.00
75913;BME280;64592;52.168;21.040;2023-10-13T14:50:18;100089.97;;;17.48;100.00
75913;BME280;64592;52.168;21.040;2023-10-13T14:55:22;100076.81;;;17.43;100.00
75913;BME280;64592;52.168;21.040;2023-10-13T15:00:39;100076.31;;;17.40;100.00
75913;BME280;64592;52.168;21.040;2023-10-13T15:05:44;100072.88;;;17.38;100.00
75913;BME280;64592;52.168;21.040;2023-10-13T15:10:47;100071.53;;;17.34;100.00
75913;BME280;64592;52.168;21.040;2023-10-13T15:15:49;100059.25;;;17.30;100.00
75913;BME280;64592;52.168;21.040;2023-10-13T15:20:51;100054.97;;;17.27;100.00
75913;BME280;64592;52.168;21.040;2023-10-13T15:25:56;100034.69;;;17.22;100.00
75913;BME280;64592;52.168;21.040;2023-10-13T15:31:16;100035.69;;;17.21;100.00
75913;BME280;64592;52.168;21.040;2023-10-13T15:36:27;100012.22;;;17.12;100.00
75913;BME280;64592;52.168;21.040;2023-10-13T15:41:33;100019.34;;;17.13;100.00
75913;BME280;64592;52.168;21.040;2023-10-13T15:46:40;100012.53;;;17.08;100.00
75913;BME280;64592;52.168;21.040;2023-10-13T15:51:42;100008.59;;;17.03;100.00
75913;BME280;64592;52.168;21.040;2023-10-13T15:56:47;100011.66;;;17.00;100.00
75913;BME280;64592;52.168;21.040;2023-10-13T16:01:49;99997.16;;;16.99;100.00
75913;BME280;64592;52.168;21.040;2023-10-13T16:06:56;99999.91;;;16.99;100.00
75913;BME280;64592;52.168;21.040;2023-10-13T16:12:01;99995.47;;;16.98;100.00
75913;BME280;64592;52.168;21.040;2023-10-13T16:17:02;99981.84;;;16.98;100.00
75913;BME280;64592;52.168;21.040;2023-10-13T16:22:05;99974.03;;;16.95;100.00
75913;BME280;64592;52.168;21.040;2023-10-13T16:27:11;99983.91;;;16.96;100.00
75913;BME280;64592;52.168;21.040;2023-10-13T16:32:15;99972.31;;;16.94;100.00
75913;BME280;64592;52.168;21.040;2023-10-13T16:37:17;99972.31;;;16.94;100.00
75913;BME280;64592;52.168;21.040;2023-10-13T16:42:23;99957.13;;;16.84;100.00
75913;BME280;64592;52.168;21.040;2023-10-13T16:47:24;99947.78;;;16.86;100.00
75913;BME280;64592;52.168;21.040;2023-10-13T16:52:26;99936.03;;;16.86;100.00
75913;BME280;64592;52.168;21.040;2023-10-13T16:57:30;99936.34;;;16.83;100.00
75913;BME280;64592;52.168;21.040;2023-10-13T17:02:32;99921.53;;;16.77;100.00
75913;BME280;64592;52.168;21.040;2023-10-13T17:07:34;99918.50;;;16.80;100.00
75913;BME280;64592;52.168;21.040;2023-10-13T17:12:38;99907.44;;;16.82;100.00
75913;BME280;64592;52.168;21.040;2023-10-13T17:17:40;99913.72;;;16.82;100.00
75913;BME280;64592;52.168;21.040;2023-10-13T17:22:44;99900.31;;;16.81;100.00
75913;BME280;64592;52.168;21.040;2023-10-13T17:27:49;99901.66;;;16.85;100.00
75913;BME280;64592;52.168;21.040;2023-10-13T17:32:52;99898.06;;;16.84;100.00
75913;BME280;64592;52.168;21.040;2023-10-13T17:37:56;99895.34;;;16.84;100.00
75913;BME280;64592;52.168;21.040;2023-10-13T17:42:59;99879.00;;;16.84;100.00
75913;BME280;64592;52.168;21.040;2023-10-13T17:48:01;99876.81;;;16.80;100.00
75913;BME280;64592;52.168;21.040;2023-10-13T17:53:06;99867.78;;;16.79;100.00
75913;BME280;64592;52.168;21.040;2023-10-13T17:58:09;99874.41;;;16.77;100.00
75913;BME280;64592;52.168;21.040;2023-10-13T18:03:12;99866.59;;;16.74;100.00
75913;BME280;64592;52.168;21.040;2023-10-13T18:08:20;99859.59;;;16.71;100.00
75913;BME280;64592;52.168;21.040;2023-10-13T18:13:24;99857.19;;;16.68;100.00
75913;BME280;64592;52.168;21.040;2023-10-13T18:18:28;99853.47;;;16.69;100.00
75913;BME280;64592;52.168;21.040;2023-10-13T18:23:30;99860.28;;;16.65;100.00
75913;BME280;64592;52.168;21.040;2023-10-13T18:28:34;99863.00;;;16.65;100.00
75913;BME280;64592;52.168;21.040;2023-10-13T18:33:38;99855.84;;;16.64;100.00
75913;BME280;64592;52.168;21.040;2023-10-13T18:38:41;99849.56;;;16.63;100.00
75913;BME280;64592;52.168;21.040;2023-10-13T18:43:46;99861.06;;;16.57;100.00
75913;BME280;64592;52.168;21.040;2023-10-13T18:48:54;99863.78;;;16.57;100.00
75913;BME280;64592;52.168;21.040;2023-10-13T18:53:57;99863.63;;;16.59;100.00
75913;BME280;64592;52.168;21.040;2023-10-13T18:59:03;99845.28;;;16.61;100.00
75913;BME280;64592;52.168;21.040;2023-10-13T19:04:06;99848.84;;;16.61;100.00
75913;BME280;64592;52.168;21.040;2023-10-13T19:09:09;99843.91;;;16.57;100.00
75913;BME280;64592;52.168;21.040;2023-10-13T19:14:12;99827.72;;;16.55;100.00
75913;BME280;64592;52.168;21.040;2023-10-13T19:19:13;99825.84;;;16.56;100.00
75913;BME280;64592;52.168;21.040;2023-10-13T19:24:15;99833.31;;;16.54;100.00
75913;BME280;64592;52.168;21.040;2023-10-13T19:29:23;99823.97;;;16.48;100.00
75913;BME280;64592;52.168;21.040;2023-10-13T19:34:25;99825.84;;;16.48;100.00
75913;BME280;64592;52.168;21.040;2023-10-13T19:39:27;99818.69;;;16.47;100.00
75913;BME280;64592;52.168;21.040;2023-10-13T19:44:30;99817.84;;;16.46;100.00
75913;BME280;64592;52.168;21.040;2023-10-13T19:49:34;99805.25;;;16.53;100.00
75913;BME280;64592;52.168;21.040;2023-10-13T19:54:40;99797.94;;;16.54;100.00
75913;BME280;64592;52.168;21.040;2023-10-13T19:59:43;99792.50;;;16.46;100.00
75913;BME280;64592;52.168;21.040;2023-10-13T20:04:45;99787.41;;;16.43;100.00
75913;BME280;64592;52.168;21.040;2023-10-13T20:09:48;99792.31;;;16.39;100.00
75913;BME280;64592;52.168;21.040;2023-10-13T20:14:52;99796.03;;;16.38;100.00
75913;BME280;64592;52.168;21.040;2023-10-13T20:19:54;99794.53;;;16.36;100.00
75913;BME280;64592;52.168;21.040;2023-10-13T20:24:56;99797.56;;;16.33;100.00
75913;BME280;64592;52.168;21.040;2023-10-13T20:30:01;99794.50;;;16.27;100.00
75913;BME280;64592;52.168;21.040;2023-10-13T20:35:08;99793.81;;;16.25;100.00
75913;BME280;64592;52.168;21.040;2023-10-13T20:40:12;99783.09;;;16.24;100.00
75913;BME280;64592;52.168;21.040;2023-10-13T20:45:20;99788.03;;;16.20;100.00
75913;BME280;64592;52.168;21.040;2023-10-13T20:50:26;99793.63;;;16.19;100.00
75913;BME280;64592;52.168;21.040;2023-10-13T20:55:30;99780.84;;;16.11;100.00
75913;BME280;64592;52.168;21.040;2023-10-13T21:00:39;99767.25;;;16.11;100.00
75913;BME280;64592;52.168;21.040;2023-10-13T21:05:45;99769.47;;;16.08;100.00
75913;BME280;64592;52.168;21.040;2023-10-13T21:10:47;99752.78;;;16.03;100.00
75913;BME280;64592;52.168;21.040;2023-10-13T21:15:53;99741.06;;;16.02;100.00
75913;BME280;64592;52.168;21.040;2023-10-13T21:21:04;99731.03;;;16.03;100.00
75913;BME280;64592;52.168;21.040;2023-10-13T21:26:07;99728.16;;;16.04;100.00
75913;BME280;64592;52.168;21.040;2023-10-13T21:31:10;99726.44;;;16.03;100.00
75913;BME280;64592;52.168;21.040;2023-10-13T21:36:16;99715.56;;;16.03;100.00
75913;BME280;64592;52.168;21.040;2023-10-13T21:41:19;99703.53;;;16.06;100.00
75913;BME280;64592;52.168;21.040;2023-10-13T21:46:25;99709.47;;;16.09;100.00
75913;BME280;64592;52.168;21.040;2023-10-13T21:51:30;99696.56;;;16.11;100.00
75913;BME280;64592;52.168;21.040;2023-10-13T21:56:32;99711.84;;;16.12;100.00
75913;BME280;64592;52.168;21.040;2023-10-13T22:01:36;99693.66;;;16.13;100.00
75913;BME280;64592;52.168;21.040;2023-10-13T22:06:40;99687.22;;;16.14;100.00
75913;BME280;64592;52.168;21.040;2023-10-13T22:11:46;99685.84;;;16.18;100.00
75913;BME280;64592;52.168;21.040;2023-10-13T22:16:50;99682.97;;;16.19;100.00
75913;BME280;64592;52.168;21.040;2023-10-13T22:21:54;99677.19;;;16.22;100.00
75913;BME280;64592;52.168;21.040;2023-10-13T22:26:56;99673.78;;;16.20;100.00
75913;BME280;64592;52.168;21.040;2023-10-13T22:31:59;99679.22;;;16.20;100.00
75913;BME280;64592;52.168;21.040;2023-10-13T22:37:01;99665.63;;;16.20;100.00
75913;BME280;64592;52.168;21.040;2023-10-13T22:42:03;99660.19;;;16.20;100.00
75913;BME280;64592;52.168;21.040;2023-10-13T22:47:07;99649.47;;;16.19;100.00
75913;BME280;64592;52.168;21.040;2023-10-13T22:52:11;99641.47;;;16.17;100.00
75913;BME280;64592;52.168;21.040;2023-10-13T22:57:14;99639.78;;;16.16;100.00
75913;BME280;64592;52.168;21.040;2023-10-13T23:02:18;99632.47;;;16.17;100.00
75913;BME280;64592;52.168;21.040;2023-10-13T23:07:21;99617.16;;;16.16;100.00
75913;BME280;64592;52.168;21.040;2023-10-13T23:12:24;99621.09;;;16.13;100.00
75913;BME280;64592;52.168;21.040;2023-10-13T23:17:28;99603.94;;;16.13;100.00
75913;BME280;64592;52.168;21.040;2023-10-13T23:22:30;99614.66;;;16.14;100.00
75913;BME280;64592;52.168;21.040;2023-10-13T23:27:32;99601.22;;;16.13;100.00
75913;BME280;64592;52.168;21.040;2023-10-13T23:32:38;99597.63;;;16.12;100.00
75913;BME280;64592;52.168;21.040;2023-10-13T23:37:40;99595.78;;;16.13;100.00
75913;BME280;64592;52.168;21.040;2023-10-13T23:42:43;99586.06;;;16.10;100.00
75913;BME280;64592;52.168;21.040;2023-10-13T23:47:56;99580.63;;;16.10;100.00
75913;BME280;64592;52.168;21.040;2023-10-13T23:52:59;99582.50;;;16.10;100.00
75913;BME280;64592;52.168;21.040;2023-10-13T23:58:03;99564.69;;;16.07;100.00
